Time;durP1;ratioP1;P1;durP2;ratioP2;P2;SDS_P1;SDS_P2;PMS_P1;PMS_P2;Temp;Humidity;BMP_temperature;BMP_pressure;BME280_temperature;BME280_humidity;BME280_pressure;Samples;Min_cycle;Max_cycle;Signal;HPM_P1;HPM_P2
2022/01/28 00:01:26;;;;;;;33.50;21.50;;;;;;;19.92;45.93;101281.66;4984316;28;20042;-38
2022/01/28 00:04:00;;;;;;;31.40;22.08;;;;;;;19.90;45.99;101288.97;4967941;28;20031;-41
2022/01/28 00:06:26;;;;;;;30.73;20.73;;;;;;;19.89;45.82;101295.25;4983793;28;20042;-44
2022/01/28 00:08:51;;;;;;;33.72;22.23;;;;;;;19.86;45.89;101285.88;4981334;28;20093;-43
2022/01/28 00:11:17;;;;;;;31.20;21.25;;;;;;;19.85;45.99;101294.00;4984239;28;20114;-41
2022/01/28 00:13:44;;;;;;;29.00;20.73;;;;;;;19.83;45.84;101299.50;4984191;28;20117;-44
2022/01/28 00:19:17;;;;;;;30.55;21.25;;;;;;;19.79;46.16;101292.13;4978770;28;20057;-41
2022/01/28 00:38:37;;;;;;;27.38;19.02;;;;;;;19.74;46.20;101266.22;4907408;29;20063;-40
2022/01/28 00:41:03;;;;;;;28.45;20.42;;;;;;;19.73;46.23;101266.41;4890969;29;20047;-43
2022/01/28 00:43:29;;;;;;;22.40;16.75;;;;;;;19.73;46.24;101254.00;4908221;29;20867;-40
2022/01/28 00:45:55;;;;;;;26.88;18.77;;;;;;;19.72;45.91;101265.59;4905138;29;20110;-41
2022/01/28 00:48:21;;;;;;;26.70;17.60;;;;;;;19.71;45.82;101260.47;4908574;29;20072;-40
2022/01/28 00:50:47;;;;;;;24.05;18.38;;;;;;;19.67;45.71;101260.03;4907031;29;20134;-38
2022/01/28 00:53:13;;;;;;;24.73;18.73;;;;;;;19.66;45.63;101261.03;4906542;29;20032;-39
2022/01/28 00:55:39;;;;;;;24.42;17.73;;;;;;;19.64;45.81;101251.66;4906898;29;20079;-41
2022/01/28 00:58:04;;;;;;;23.15;18.70;;;;;;;19.62;45.69;101249.19;4891131;29;20051;-41
2022/01/28 01:00:31;;;;;;;25.65;18.13;;;;;;;19.62;45.53;101251.00;4908229;29;20036;-44
2022/01/28 01:02:57;;;;;;;28.65;18.98;;;;;;;19.60;45.67;101250.38;4906505;29;20047;-42
2022/01/28 01:05:23;;;;;;;24.45;16.70;;;;;;;19.57;45.67;101248.09;4907644;29;20044;-42
2022/01/28 01:07:49;;;;;;;24.10;18.40;;;;;;;19.57;45.48;101256.84;4916572;28;20493;-41
2022/01/28 01:10:15;;;;;;;22.25;17.73;;;;;;;19.56;45.55;101249.94;4987518;28;20459;-39
2022/01/28 01:12:44;;;;;;;24.15;17.30;;;;;;;19.57;45.48;101253.38;4999383;28;20050;-40
2022/01/28 01:15:12;;;;;;;25.73;18.80;;;;;;;19.57;45.32;101256.03;4991985;28;20077;-42
2022/01/28 01:17:55;;;;;;;29.02;19.15;;;;;;;19.55;45.44;101257.03;4999096;28;20082;-42
2022/01/28 01:23:06;;;;;;;24.95;18.15;;;;;;;19.53;45.40;101264.31;5006522;28;20217;-39
2022/01/28 01:25:41;;;;;;;21.70;16.67;;;;;;;19.52;45.50;101265.31;5003251;28;20052;-41
2022/01/28 01:28:07;;;;;;;22.17;16.52;;;;;;;19.52;45.45;101269.78;4988675;28;20042;-41
2022/01/28 01:30:38;;;;;;;24.33;17.75;;;;;;;19.51;45.49;101265.50;5009673;28;20030;-40
2022/01/28 01:33:04;;;;;;;20.63;16.08;;;;;;;19.51;45.37;101271.63;5013444;28;20099;-40
2022/01/28 01:35:30;;;;;;;25.95;18.38;;;;;;;19.52;45.49;101254.75;5010563;28;20752;-42
2022/01/28 01:37:55;;;;;;;23.10;18.05;;;;;;;19.50;45.58;101251.44;5009109;28;20037;-40
2022/01/28 01:40:28;;;;;;;24.80;19.15;;;;;;;19.50;45.53;101251.44;5010385;28;20049;-39
2022/01/28 01:43:06;;;;;;;24.77;18.65;;;;;;;19.49;45.62;101244.53;5008936;28;20037;-41
2022/01/28 01:53:25;;;;;;;19.17;14.38;;;;;;;19.45;45.50;101231.84;5010558;28;20096;-41
2022/01/28 01:55:51;;;;;;;22.00;16.60;;;;;;;19.44;45.31;101236.31;5009114;28;20033;-40
2022/01/28 01:58:19;;;;;;;20.52;15.68;;;;;;;19.42;45.35;101226.94;5009779;28;20025;-43
2022/01/28 02:00:45;;;;;;;21.17;15.30;;;;;;;19.38;45.29;101215.91;5016923;28;20041;-40
2022/01/28 02:03:10;;;;;;;18.95;15.45;;;;;;;19.37;45.20;101216.94;5010550;28;20509;-46
2022/01/28 02:05:36;;;;;;;22.42;14.80;;;;;;;19.34;45.17;101227.88;5013650;28;20560;-38
2022/01/28 02:08:06;;;;;;;20.35;15.25;;;;;;;19.32;45.21;101232.53;5009481;28;20057;-43
2022/01/28 02:13:07;;;;;;;20.35;15.43;;;;;;;19.29;45.18;101217.03;4790081;23;20066;-41
2022/01/28 02:15:32;;;;;;;21.05;15.75;;;;;;;19.30;45.03;101210.75;4969338;28;20109;-41
2022/01/28 02:17:59;;;;;;;20.15;15.25;;;;;;;19.28;45.04;101199.53;4969538;28;20485;-40
2022/01/28 02:20:33;;;;;;;19.58;15.18;;;;;;;19.27;45.07;101202.38;4951841;28;20047;-38
2022/01/28 02:23:00;;;;;;;18.85;14.88;;;;;;;19.25;45.07;101191.97;4951985;28;20031;-39
2022/01/28 02:25:27;;;;;;;18.80;14.20;;;;;;;19.24;44.95;101177.13;4969793;28;20435;-39
2022/01/28 02:27:55;;;;;;;18.52;14.23;;;;;;;19.21;45.07;101188.88;4969446;28;20034;-42
2022/01/28 02:30:20;;;;;;;16.88;15.07;;;;;;;19.21;45.04;101182.78;4953480;28;20046;-41
2022/01/28 02:32:48;;;;;;;17.70;14.82;;;;;;;19.20;44.92;101181.16;4954127;28;20180;-38
2022/01/28 02:35:14;;;;;;;18.13;14.48;;;;;;;19.19;44.91;101174.22;4953426;28;20037;-41
2022/01/28 02:37:40;;;;;;;20.40;15.38;;;;;;;19.18;44.89;101160.19;4969681;28;20652;-40
2022/01/28 02:40:06;;;;;;;21.15;17.30;;;;;;;19.17;44.73;101155.09;4969694;28;20180;-39
2022/01/28 02:45:36;;;;;;;22.67;17.65;;;;;;;19.17;45.11;101155.91;4940026;29;20058;-40
2022/01/28 02:48:06;;;;;;;20.98;18.35;;;;;;;19.18;45.07;101152.28;4931603;29;20102;-44
2022/01/28 02:50:40;;;;;;;22.42;16.25;;;;;;;19.18;45.13;101173.41;4948262;29;20098;-41
2022/01/28 02:53:09;;;;;;;19.77;17.55;;;;;;;19.18;45.07;101162.03;4931929;29;20035;-39
2022/01/28 02:55:41;;;;;;;22.88;18.55;;;;;;;19.18;45.12;101169.94;4932450;29;20130;-39
2022/01/28 02:58:22;;;;;;;21.15;17.02;;;;;;;19.18;45.17;101167.31;4948801;29;20066;-42
2022/01/28 03:00:48;;;;;;;23.33;17.90;;;;;;;19.16;45.08;101175.41;4931550;29;20448;-39
2022/01/28 03:03:18;;;;;;;19.15;16.50;;;;;;;19.16;45.13;101178.06;4947576;29;20043;-42
2022/01/28 03:05:44;;;;;;;19.10;15.55;;;;;;;19.16;44.93;101177.22;4947101;29;20050;-41
2022/01/28 03:08:10;;;;;;;17.70;15.02;;;;;;;19.13;44.98;101169.66;4947046;29;20049;-44
2022/01/28 03:16:05;;;;;;;17.10;14.85;;;;;;;19.08;44.77;101172.03;4947415;29;20319;-39
2022/01/28 03:18:41;;;;;;;20.00;15.30;;;;;;;19.09;44.78;101163.13;4932493;29;20450;-42
2022/01/28 03:21:19;;;;;;;;;;;;;;;18.99;44.79;101162.56;4958545;28;20053;-41
2022/01/28 03:23:44;;;;;;;15.32;12.90;;;;;;;19.02;44.92;101157.75;4969539;28;19929;-42
2022/01/28 03:26:10;;;;;;;16.33;13.82;;;;;;;19.05;44.92;101138.88;4970254;28;20031;-41
2022/01/28 03:28:35;;;;;;;17.17;12.98;;;;;;;19.06;44.81;101168.75;4969745;28;20081;-40
2022/01/28 03:31:01;;;;;;;19.77;15.50;;;;;;;19.07;44.71;101176.50;4968687;28;20031;-38
2022/01/28 03:33:26;;;;;;;14.90;13.20;;;;;;;19.07;44.79;101158.00;4969517;28;20113;-39
2022/01/28 03:35:52;;;;;;;19.05;14.40;;;;;;;19.07;44.78;101194.16;4969622;28;20065;-39
2022/01/28 03:38:17;;;;;;;17.58;14.77;;;;;;;19.07;44.67;101186.25;4952427;28;20746;-42
2022/01/28 03:40:43;;;;;;;17.40;13.75;;;;;;;19.07;44.71;101181.78;4969423;28;20037;-42
2022/01/28 03:43:08;;;;;;;17.27;14.25;;;;;;;19.06;44.49;101205.72;4969227;28;20092;-40
2022/01/28 03:45:34;;;;;;;16.73;13.40;;;;;;;19.04;44.62;101182.16;4969799;28;20038;-41
2022/01/28 03:48:00;;;;;;;15.73;13.13;;;;;;;19.04;44.61;101191.88;4970219;28;20499;-41
2022/01/28 03:50:25;;;;;;;21.08;17.52;;;;;;;19.02;44.58;101201.81;4967965;28;20113;-39
2022/01/28 03:52:51;;;;;;;22.00;18.27;;;;;;;19.01;44.63;101176.41;4968531;28;20081;-41
2022/01/28 03:55:16;;;;;;;19.25;16.20;;;;;;;19.01;44.66;101177.22;4969799;28;20023;-43
2022/01/28 03:57:42;;;;;;;18.63;16.35;;;;;;;19.01;44.69;101179.03;4968256;28;20110;-40
2022/01/28 04:00:10;;;;;;;18.65;16.13;;;;;;;19.01;44.83;101173.75;4968505;28;20049;-42
2022/01/28 04:02:38;;;;;;;20.13;16.85;;;;;;;19.00;44.58;101153.66;4932253;29;20825;-44
2022/01/28 04:13:22;;;;;;;19.10;15.85;;;;;;;18.96;44.73;101206.00;4968600;28;20073;-41
2022/01/28 04:16:28;;;;;;;17.85;13.68;;;;;;;18.96;44.56;101213.09;4968727;28;20058;-42
2022/01/28 04:18:35;;;;;;;17.23;13.43;;;;;;;18.93;44.57;101229.31;4966018;28;20130;-40
2022/01/28 04:21:01;;;;;;;16.73;13.93;;;;;;;18.91;44.30;101213.63;4967847;28;20648;-42
2022/01/28 04:23:26;;;;;;;16.92;14.45;;;;;;;18.89;44.37;101219.13;4969103;28;20494;-43
2022/01/28 04:25:52;;;;;;;16.58;13.15;;;;;;;18.88;44.39;101200.81;4968672;28;20026;-42
2022/01/28 04:28:17;;;;;;;17.02;14.95;;;;;;;18.86;44.29;101201.00;4969003;28;20133;-42
2022/01/28 04:30:42;;;;;;;18.65;15.43;;;;;;;18.85;44.20;101201.19;4968163;28;20521;-44
2022/01/28 04:33:08;;;;;;;17.27;15.02;;;;;;;18.83;44.33;101201.38;4968577;28;20031;-39
2022/01/28 04:35:34;;;;;;;17.40;13.88;;;;;;;18.82;44.37;101199.72;4967195;28;20038;-41
2022/01/28 04:38:15;;;;;;;18.58;15.75;;;;;;;18.82;44.21;101188.34;4967886;28;20125;-41
2022/01/28 04:40:55;;;;;;;20.63;15.43;;;;;;;18.80;44.13;101190.34;4968077;28;20031;-40
2022/01/28 04:43:27;;;;;;;17.48;15.48;;;;;;;18.79;44.29;101188.72;4967910;28;20601;-46
2022/01/28 04:46:03;;;;;;;14.93;13.30;;;;;;;18.77;44.24;101191.53;4966935;28;20026;-43
2022/01/28 04:48:47;;;;;;;16.45;14.10;;;;;;;18.77;44.15;101202.09;4968216;28;20498;-40
2022/01/28 04:52:12;;;;;;;18.20;15.23;;;;;;;18.74;44.33;101189.25;4971852;28;20589;-46
2022/01/28 04:54:12;;;;;;;16.20;14.20;;;;;;;18.73;44.20;101182.31;4964294;28;20042;-43
2022/01/28 05:04:45;;;;;;;21.02;17.45;;;;;;;18.75;44.33;101222.56;4967484;28;20124;-41
2022/01/28 05:13:16;;;;;;;17.33;15.02;;;;;;;18.79;44.15;101239.69;4968176;28;20058;-38
2022/01/28 05:28:48;;;;;;;17.23;14.88;;;;;;;19.01;43.68;101223.94;4968435;28;20039;-43
2022/01/28 05:31:15;;;;;;;17.33;15.25;;;;;;;19.06;43.71;101217.13;4966820;28;20043;-41
2022/01/28 05:33:40;;;;;;;18.25;15.07;;;;;;;19.11;43.54;101220.03;4967373;28;20089;-45
2022/01/28 05:36:06;;;;;;;17.80;15.63;;;;;;;19.16;43.56;101222.13;4967555;28;20035;-38
2022/01/28 05:38:31;;;;;;;17.02;15.23;;;;;;;19.21;43.36;101212.66;4968481;28;20034;-39
2022/01/28 05:40:57;;;;;;;17.08;14.75;;;;;;;19.27;43.48;101219.03;4968085;28;20501;-38
2022/01/28 05:43:22;;;;;;;18.20;14.95;;;;;;;19.31;43.41;101230.88;4966397;28;20742;-43
2022/01/28 05:45:48;;;;;;;16.40;14.57;;;;;;;19.38;43.42;101231.75;4967143;28;20035;-42
2022/01/28 05:48:15;;;;;;;16.00;13.40;;;;;;;19.42;43.19;101246.25;4967197;28;20038;-41
2022/01/28 05:50:41;;;;;;;15.55;13.60;;;;;;;19.48;43.29;101253.44;4967202;28;20509;-42
2022/01/28 05:53:06;;;;;;;16.92;14.02;;;;;;;19.54;43.02;101252.75;4967791;28;20038;-38
2022/01/28 05:55:32;;;;;;;16.05;13.82;;;;;;;19.59;43.12;101238.16;4948854;28;20608;-42
2022/01/28 05:57:57;;;;;;;17.95;14.05;;;;;;;19.66;43.06;101241.72;4967212;28;20039;-40
2022/01/28 06:00:23;;;;;;;15.70;13.93;;;;;;;19.70;43.17;101242.97;4967057;28;20118;-38
2022/01/28 06:02:48;;;;;;;14.93;13.43;;;;;;;19.74;43.05;101241.59;4965750;28;20762;-39
2022/01/28 06:05:15;;;;;;;16.42;13.93;;;;;;;19.78;43.01;101232.31;4965809;28;20097;-40
2022/01/28 06:07:43;;;;;;;15.57;13.38;;;;;;;19.82;42.81;101239.69;4950511;28;20101;-42
2022/01/28 06:10:14;;;;;;;14.70;13.02;;;;;;;19.85;42.98;101252.50;4966030;28;20110;-39
2022/01/28 06:12:47;;;;;;;14.82;13.10;;;;;;;19.89;42.78;101251.13;4963677;28;20054;-40
2022/01/28 06:15:13;;;;;;;15.93;13.65;;;;;;;19.95;42.88;101244.28;4951047;28;20129;-42
2022/01/28 06:17:39;;;;;;;15.07;13.32;;;;;;;20.00;42.64;101254.28;4968942;28;20097;-42
2022/01/28 06:20:07;;;;;;;16.05;13.80;;;;;;;20.04;42.66;101266.97;4969086;28;20385;-42
2022/01/28 06:22:36;;;;;;;14.18;12.52;;;;;;;20.06;42.89;101272.88;4971523;28;20033;-40
2022/01/28 06:25:02;;;;;;;13.98;12.35;;;;;;;20.10;42.63;101279.44;4969343;28;20031;-42
2022/01/28 06:27:28;;;;;;;14.75;13.00;;;;;;;20.14;42.77;101283.34;4970392;28;20023;-40
2022/01/28 06:29:53;;;;;;;14.98;13.45;;;;;;;20.17;42.58;101288.28;4969778;28;20474;-41
2022/01/28 06:32:18;;;;;;;13.98;12.55;;;;;;;20.19;42.48;101282.78;4971221;28;20599;-45
2022/01/28 06:34:44;;;;;;;13.82;12.25;;;;;;;20.21;42.67;101289.53;4970548;28;20038;-40
2022/01/28 06:37:09;;;;;;;14.75;12.95;;;;;;;20.25;42.53;101294.47;4955661;28;20022;-42
2022/01/28 06:39:35;;;;;;;15.55;13.40;;;;;;;20.28;42.40;101302.84;4969264;28;20087;-41
2022/01/28 06:42:00;;;;;;;14.57;13.10;;;;;;;20.30;42.50;101303.47;4969883;28;20382;-39
2022/01/28 06:44:26;;;;;;;13.95;12.38;;;;;;;20.33;42.34;101307.53;4970206;28;20027;-41
2022/01/28 06:46:52;;;;;;;13.65;12.15;;;;;;;20.37;42.52;101311.47;4969583;28;20554;-42
2022/01/28 06:49:19;;;;;;;15.40;13.23;;;;;;;20.39;42.18;101312.94;4966841;28;20031;-42
2022/01/28 06:51:45;;;;;;;14.95;13.10;;;;;;;20.42;42.37;101317.84;4969348;28;20027;-41
2022/01/28 06:54:10;;;;;;;12.90;11.55;;;;;;;20.43;42.27;101308.91;4969532;28;20040;-42
2022/01/28 06:56:36;;;;;;;14.55;12.52;;;;;;;20.46;42.19;101320.94;4952451;28;20030;-41
2022/01/28 06:59:02;;;;;;;16.67;12.55;;;;;;;20.49;42.18;101315.28;4967332;28;20034;-42
2022/01/28 07:01:27;;;;;;;14.40;12.90;;;;;;;20.53;42.12;101316.53;4953515;28;20058;-41
2022/01/28 07:03:53;;;;;;;16.10;12.80;;;;;;;20.54;42.01;101320.84;4969030;28;20027;-45
2022/01/28 07:06:19;;;;;;;13.55;12.13;;;;;;;20.55;42.13;101330.41;4967574;28;20034;-41
2022/01/28 07:08:44;;;;;;;16.98;11.82;;;;;;;20.56;42.04;101337.34;4952443;28;20038;-42
2022/01/28 07:11:10;;;;;;;16.17;12.23;;;;;;;20.53;42.24;101354.44;4963116;28;20026;-43
2022/01/28 07:13:36;;;;;;;14.90;13.10;;;;;;;20.50;42.14;101356.63;4968160;28;20105;-44
2022/01/28 07:16:01;;;;;;;12.50;11.20;;;;;;;20.47;42.20;101370.22;4968315;28;20042;-42
2022/01/28 07:18:28;;;;;;;13.27;11.88;;;;;;;20.45;42.32;101372.25;4968579;28;20031;-40
2022/01/28 07:20:54;;;;;;;15.02;12.02;;;;;;;20.42;42.30;101373.44;4951198;28;20133;-40
2022/01/28 07:23:19;;;;;;;14.35;11.88;;;;;;;20.41;42.12;101365.69;4961502;28;20142;-43
2022/01/28 07:25:45;;;;;;;13.02;11.68;;;;;;;20.40;42.23;101371.97;4950928;28;20085;-41
2022/01/28 07:28:10;;;;;;;13.07;11.48;;;;;;;20.39;41.98;101375.63;4966402;28;20034;-42
2022/01/28 07:30:36;;;;;;;12.10;10.80;;;;;;;20.38;42.11;101387.22;4966040;28;20026;-40
2022/01/28 07:33:05;;;;;;;15.35;12.70;;;;;;;20.35;42.20;101393.69;4967471;28;20252;-43
2022/01/28 07:35:31;;;;;;;13.73;11.18;;;;;;;20.35;42.07;101393.69;4966317;28;20155;-40
2022/01/28 07:37:56;;;;;;;14.65;12.27;;;;;;;20.34;42.20;101389.41;4968075;28;20069;-46
2022/01/28 07:40:22;;;;;;;12.30;11.00;;;;;;;20.32;42.18;101386.13;4967911;28;20056;-41
2022/01/28 07:42:47;;;;;;;14.23;12.10;;;;;;;20.32;41.97;101396.69;4966094;28;20944;-41
2022/01/28 07:45:14;;;;;;;13.73;11.68;;;;;;;20.30;42.28;101389.97;4965017;28;20058;-42
2022/01/28 07:47:40;;;;;;;13.43;12.02;;;;;;;20.29;42.24;101393.63;4967445;28;20485;-40
2022/01/28 07:50:08;;;;;;;12.25;11.05;;;;;;;20.27;42.38;101401.75;4966299;28;20367;-42
2022/01/28 07:52:34;;;;;;;12.63;11.10;;;;;;;20.27;42.10;101416.81;4967129;28;20081;-43
2022/01/28 07:55:00;;;;;;;12.20;11.00;;;;;;;20.25;42.32;101408.25;4966340;28;20121;-42
2022/01/28 07:57:25;;;;;;;12.95;10.98;;;;;;;20.24;42.20;101423.28;4967628;28;20094;-39
2022/01/28 07:59:51;;;;;;;12.52;11.27;;;;;;;20.22;42.46;101427.94;4965936;28;20042;-41
2022/01/28 08:02:16;;;;;;;14.70;11.75;;;;;;;20.21;42.06;101423.66;4960162;28;20540;-41
2022/01/28 08:04:42;;;;;;;12.82;11.40;;;;;;;20.20;42.18;101425.47;4951764;28;20116;-42
2022/01/28 08:07:07;;;;;;;12.30;10.85;;;;;;;20.19;42.13;101417.72;4968904;28;20030;-40
2022/01/28 08:09:33;;;;;;;13.35;10.80;;;;;;;20.17;42.32;101428.50;4951319;28;20023;-40
2022/01/28 08:11:58;;;;;;;12.63;10.30;;;;;;;20.16;42.37;101437.44;4959087;28;20051;-42
2022/01/28 08:14:24;;;;;;;12.48;10.80;;;;;;;20.13;42.31;101432.50;4958088;28;20035;-41
2022/01/28 08:16:50;;;;;;;15.90;11.13;;;;;;;20.12;42.60;101420.28;4967394;28;20254;-42
2022/01/28 08:19:16;;;;;;;12.48;9.90;;;;;;;20.10;42.65;101417.00;4968316;28;20027;-52
2022/01/28 08:21:41;;;;;;;18.08;11.32;;;;;;;20.10;43.38;101421.47;4963909;28;20026;-50
2022/01/28 08:24:06;;;;;;;12.52;11.00;;;;;;;20.12;43.71;101417.66;4965662;28;20023;-44
2022/01/28 08:26:32;;;;;;;14.65;12.50;;;;;;;20.19;43.90;101434.44;4967120;28;20026;-45
2022/01/28 08:28:58;;;;;;;17.42;12.43;;;;;;;20.23;44.71;101439.34;4967046;28;20081;-43
2022/01/28 08:31:23;;;;;;;18.33;13.32;;;;;;;20.27;45.76;101427.41;4967091;28;20109;-49
2022/01/28 08:33:48;;;;;;;50.25;32.05;;;;;;;20.39;49.47;101416.16;4966243;28;20109;-43
2022/01/28 08:36:14;;;;;;;26.35;18.48;;;;;;;20.46;50.42;101421.53;4966409;28;20041;-43
2022/01/28 08:38:53;;;;;;;19.25;16.63;;;;;;;20.45;51.20;101423.34;4967886;28;20281;-48
2022/01/28 08:41:19;;;;;;;21.40;15.13;;;;;;;20.44;50.53;101434.94;4950272;28;20034;-40
2022/01/28 08:43:44;;;;;;;16.85;12.60;;;;;;;20.41;49.45;101426.56;4961783;28;20034;-55
2022/01/28 08:46:10;;;;;;;15.38;12.45;;;;;;;20.38;48.69;101429.56;4964116;28;20030;-43
2022/01/28 08:48:36;;;;;;;15.70;12.00;;;;;;;20.35;47.90;101425.44;4964979;28;20447;-46
2022/01/28 08:51:01;;;;;;;18.10;13.43;;;;;;;20.34;48.83;101425.63;4965844;28;20030;-48
2022/01/28 08:53:27;;;;;;;13.25;10.43;;;;;;;20.30;47.98;101411.16;4966374;28;20026;-46
2022/01/28 08:55:52;;;;;;;18.27;10.25;;;;;;;20.26;47.70;101421.28;4946874;28;20101;-47
2022/01/28 08:58:18;;;;;;;16.98;11.60;;;;;;;20.21;47.95;101421.00;4964279;28;20043;-47
2022/01/28 09:00:46;;;;;;;13.45;10.20;;;;;;;20.18;47.75;101424.03;4966915;28;20058;-42
2022/01/28 09:03:15;;;;;;;14.88;10.52;;;;;;;20.13;47.35;101431.69;4946719;28;20034;-43
2022/01/28 09:05:41;;;;;;;16.45;10.68;;;;;;;20.10;46.95;101438.16;4928372;28;20039;-42
2022/01/28 09:08:09;;;;;;;15.13;10.23;;;;;;;20.06;46.86;101434.25;4965441;28;20037;-39
2022/01/28 09:10:37;;;;;;;18.52;10.98;;;;;;;20.03;47.10;101412.63;4948780;28;20035;-46
2022/01/28 09:15:41;;;;;;;14.02;12.25;;;;;;;19.93;47.01;101414.72;4962760;28;20043;-41
2022/01/28 09:18:09;;;;;;;15.32;11.10;;;;;;;19.92;47.21;101413.91;4961052;28;20041;-41
2022/01/28 09:20:36;;;;;;;12.93;10.98;;;;;;;19.89;46.88;101411.63;4947791;28;20031;-41
2022/01/28 09:23:03;;;;;;;18.48;14.05;;;;;;;19.89;46.79;101424.84;4963214;28;20027;-43
2022/01/28 09:25:30;;;;;;;15.38;11.73;;;;;;;19.88;46.82;101424.03;4964344;28;20042;-39
2022/01/28 09:27:55;;;;;;;15.57;11.35;;;;;;;19.87;46.46;101426.84;4961880;28;20379;-43
2022/01/28 09:30:21;;;;;;;14.98;11.18;;;;;;;19.87;46.48;101421.56;4949356;28;20023;-40
2022/01/28 09:32:46;;;;;;;17.77;11.18;;;;;;;19.86;46.08;101418.09;4962191;28;20065;-43
2022/01/28 09:35:12;;;;;;;13.52;10.40;;;;;;;19.86;46.14;101414.63;4964843;28;20585;-42
2022/01/28 09:37:37;;;;;;;15.77;10.48;;;;;;;19.84;46.23;101408.72;4965245;28;20339;-40
2022/01/28 09:40:05;;;;;;;13.95;11.40;;;;;;;19.84;46.12;101417.47;4966876;28;20034;-40
2022/01/28 09:42:35;;;;;;;13.98;10.57;;;;;;;19.82;46.21;101423.97;4963652;28;20031;-45
2022/01/28 09:45:03;;;;;;;17.92;11.85;;;;;;;19.83;47.07;101433.53;4952957;28;20034;-43
2022/01/28 09:47:30;;;;;;;17.50;10.02;;;;;;;19.83;47.42;101430.88;4956881;28;20034;-53
2022/01/28 09:49:57;;;;;;;13.90;9.75;;;;;;;19.83;47.30;101430.88;4966575;28;20457;-43
2022/01/28 09:52:22;;;;;;;15.40;10.57;;;;;;;19.82;47.39;101424.78;4978848;28;20030;-41
2022/01/28 09:54:48;;;;;;;18.35;10.27;;;;;;;19.84;46.98;101422.78;4978615;28;20061;-39
2022/01/28 09:57:18;;;;;;;12.48;9.52;;;;;;;19.85;47.11;101437.59;4970045;28;20045;-38
2022/01/28 09:59:45;;;;;;;19.02;10.60;;;;;;;19.84;46.87;101440.47;4954527;28;20112;-40
2022/01/28 10:02:11;;;;;;;15.88;10.50;;;;;;;19.84;46.51;101438.63;4952238;28;20042;-42
2022/01/28 10:04:37;;;;;;;12.75;9.32;;;;;;;19.83;46.29;101436.19;4976913;28;20390;-38
2022/01/28 10:07:14;;;;;;;14.43;9.60;;;;;;;19.79;46.34;101432.25;4975198;28;20037;-45
2022/01/28 10:09:58;;;;;;;13.27;9.80;;;;;;;19.77;46.02;101439.53;4982556;28;20039;-39
2022/01/28 10:12:39;;;;;;;13.70;11.00;;;;;;;19.77;45.96;101450.13;4963430;28;20069;-40
2022/01/28 10:15:17;;;;;;;11.82;10.27;;;;;;;19.75;45.93;101454.75;4973564;28;20509;-40
2022/01/28 10:17:54;;;;;;;14.85;10.95;;;;;;;19.68;45.83;101446.72;4970047;28;20513;-43
2022/01/28 10:20:21;;;;;;;11.30;9.00;;;;;;;19.69;45.79;101455.47;4968600;28;20113;-41
2022/01/28 10:23:04;;;;;;;10.98;9.88;;;;;;;19.66;45.90;101455.84;4965547;28;20789;-43
2022/01/28 10:25:34;;;;;;;13.75;11.18;;;;;;;19.67;46.11;101454.84;4967584;28;20077;-41
2022/01/28 10:28:07;;;;;;;18.42;11.80;;;;;;;19.64;46.63;101448.09;4978236;28;20502;-47
2022/01/28 10:30:42;;;;;;;15.32;11.95;;;;;;;19.62;46.63;101450.09;4973552;28;20098;-40
2022/01/28 10:33:22;;;;;;;24.67;11.43;;;;;;;19.65;50.35;101448.91;4969746;28;20078;-39
2022/01/28 10:35:59;;;;;;;22.60;12.27;;;;;;;19.63;52.24;101451.72;4967139;28;20054;-42
2022/01/28 10:38:36;;;;;;;26.08;12.18;;;;;;;19.62;51.99;101454.56;4973177;28;20038;-41
2022/01/28 10:41:16;;;;;;;18.13;11.80;;;;;;;19.61;51.92;101443.16;4945464;28;20034;-39
2022/01/28 10:43:46;;;;;;;18.55;11.60;;;;;;;19.61;51.46;101452.91;4963240;28;20034;-43
2022/01/28 10:46:12;;;;;;;13.73;9.70;;;;;;;19.61;50.80;101452.91;4973274;28;20071;-40
2022/01/28 10:49:08;;;;;;;14.52;10.20;;;;;;;19.58;50.47;101443.50;4968647;28;20045;-41
2022/01/28 10:51:41;;;;;;;17.20;9.80;;;;;;;19.58;49.91;101440.88;4957785;28;20051;-42
2022/01/28 10:54:28;;;;;;;15.80;9.15;;;;;;;19.62;49.68;101443.97;4963565;28;20837;-40
2022/01/28 10:56:59;;;;;;;17.23;10.70;;;;;;;19.61;49.42;101447.63;4963854;28;20035;-39
2022/01/28 10:59:27;;;;;;;12.93;9.30;;;;;;;19.62;49.41;101438.69;4962953;28;20078;-42
2022/01/28 11:01:54;;;;;;;15.25;9.85;;;;;;;19.62;49.11;101444.81;4961188;28;20034;-40
2022/01/28 11:04:20;;;;;;;17.52;10.45;;;;;;;19.60;48.84;101452.09;4960701;28;20031;-40
2022/01/28 11:06:47;;;;;;;15.48;10.52;;;;;;;19.60;48.79;101453.91;4961675;28;20509;-43
2022/01/28 11:09:15;;;;;;;18.05;10.70;;;;;;;19.57;48.45;101463.00;4966406;28;20034;-46
2022/01/28 11:11:41;;;;;;;16.90;10.73;;;;;;;19.57;48.35;101456.91;4968291;28;20034;-42
2022/01/28 11:14:07;;;;;;;14.27;11.68;;;;;;;19.53;48.06;101440.59;4964406;28;20031;-43
2022/01/28 11:16:33;;;;;;;18.55;12.77;;;;;;;19.51;48.11;101445.22;4961544;28;20033;-43
2022/01/28 11:18:59;;;;;;;15.52;11.25;;;;;;;19.47;48.17;101444.72;4962363;28;20031;-42
2022/01/28 11:22:12;;;;;;;17.55;12.27;;;;;;;19.42;47.83;101452.38;4957595;28;20035;-42
2022/01/28 11:25:08;;;;;;;17.65;11.07;;;;;;;19.40;47.96;101446.44;4869062;29;20037;-47
2022/01/28 11:27:38;;;;;;;13.75;10.25;;;;;;;19.39;47.98;101444.81;4866654;29;20051;-42
2022/01/28 11:30:28;;;;;;;16.17;12.05;;;;;;;19.38;48.04;101439.69;4867591;29;20049;-42
2022/01/28 11:33:00;;;;;;;14.63;11.38;;;;;;;19.39;47.93;101436.88;4868009;29;20041;-43
2022/01/28 11:35:33;;;;;;;16.92;12.00;;;;;;;19.38;47.85;101434.41;4866084;29;20751;-43
2022/01/28 11:38:04;;;;;;;14.18;10.02;;;;;;;19.39;47.81;101438.69;4866313;29;20045;-46
2022/01/28 11:40:51;;;;;;;15.82;10.00;;;;;;;19.34;47.52;101436.63;4867913;29;20069;-43
2022/01/28 11:43:27;;;;;;;14.60;11.57;;;;;;;19.36;47.66;101444.38;4867560;29;20504;-44
2022/01/28 11:46:17;;;;;;;14.25;9.48;;;;;;;19.33;47.52;101447.34;4868009;29;20048;-41
2022/01/28 11:48:52;;;;;;;16.85;12.02;;;;;;;19.32;47.37;101438.59;4868290;29;20060;-41
2022/01/28 11:51:22;;;;;;;11.90;9.37;;;;;;;19.37;47.35;101435.44;4866684;29;20098;-44
2022/01/28 11:53:58;;;;;;;17.58;11.27;;;;;;;19.33;47.20;101440.25;4859004;29;20067;-43
2022/01/28 11:56:25;;;;;;;14.77;10.65;;;;;;;19.34;47.47;101428.69;4956298;28;20498;-43
2022/01/28 11:58:53;;;;;;;16.50;11.93;;;;;;;19.34;47.27;101426.03;4970846;28;20434;-42
2022/01/28 12:01:45;;;;;;;17.02;12.18;;;;;;;19.33;47.29;101434.16;4947333;28;20035;-42
2022/01/28 12:04:27;;;;;;;334.55;139.82;;;;;;;19.46;51.69;101429.88;4960420;28;20027;-45
2022/01/28 12:07:03;;;;;;;518.90;302.77;;;;;;;19.72;53.45;101421.56;4966175;28;20058;-43
2022/01/28 12:09:30;;;;;;;924.72;777.90;;;;;;;19.87;54.73;101432.13;4962000;28;20041;-50
2022/01/28 12:11:58;;;;;;;688.03;616.13;;;;;;;20.04;55.73;101422.19;4963181;28;20057;-47
2022/01/28 12:14:52;;;;;;;557.08;498.70;;;;;;;20.27;63.04;101422.94;4957370;28;20035;-44
2022/01/28 12:17:33;;;;;;;358.13;316.13;;;;;;;20.51;61.86;101424.44;4963161;28;20081;-43
2022/01/28 12:20:21;;;;;;;273.15;243.52;;;;;;;20.62;59.23;101421.31;4960872;28;20490;-47
2022/01/28 12:23:01;;;;;;;211.25;174.93;;;;;;;20.75;64.14;101416.16;4950853;28;20214;-44
2022/01/28 12:25:36;;;;;;;149.80;128.18;;;;;;;20.85;65.30;101421.94;4964862;28;20077;-52
2022/01/28 12:28:20;;;;;;;128.60;113.25;;;;;;;20.91;67.85;101425.69;4946574;28;20072;-47
2022/01/28 12:30:48;;;;;;;128.18;113.32;;;;;;;21.02;68.33;101425.19;4962120;28;20041;-43
2022/01/28 12:33:22;;;;;;;123.40;110.18;;;;;;;21.13;69.92;101418.56;4962145;28;20027;-45
2022/01/28 12:35:50;;;;;;;115.63;98.10;;;;;;;21.12;69.04;101422.22;4965556;28;20031;-48
2022/01/28 12:38:20;;;;;;;97.47;86.25;;;;;;;20.91;64.32;101414.25;4947711;28;20030;-44